createdAt,value
2023-02-19T00:02:48.575Z,97884.09
2023-02-19T00:05:51.417Z,97883.28
2023-02-19T00:08:54.261Z,97882.81
2023-02-19T00:11:58.483Z,97883.72
2023-02-19T00:15:01.320Z,97877.09
2023-02-19T00:18:04.092Z,97883.69
2023-02-19T00:21:07.277Z,97884.50
2023-02-19T00:24:12.427Z,97887.41
2023-02-19T00:27:16.637Z,97888.63
2023-02-19T00:30:19.533Z,97888.63
2023-02-19T00:33:22.450Z,97884.94
2023-02-19T00:36:26.144Z,97889.66
2023-02-19T00:39:29.800Z,97892.75
2023-02-19T00:42:34.041Z,97895.25
2023-02-19T00:45:36.884Z,97895.63
2023-02-19T00:48:39.673Z,97894.03
2023-02-19T00:51:42.449Z,97888.88
2023-02-19T00:54:45.224Z,97887.03
2023-02-19T00:57:49.418Z,97889.91
2023-02-19T01:00:52.255Z,97890.88
2023-02-19T01:03:55.083Z,97897.09
2023-02-19T01:06:57.949Z,97889.91
2023-02-19T01:10:00.804Z,97886.97
2023-02-19T01:13:04.994Z,97889.91
2023-02-19T01:16:08.617Z,97891.16
2023-02-19T01:19:11.774Z,97895.00
2023-02-19T01:22:14.849Z,97898.34
2023-02-19T01:25:17.796Z,97887.28
2023-02-19T01:28:22.990Z,97890.72
2023-02-19T01:31:26.038Z,97890.31
2023-02-19T01:34:33.314Z,97884.41
2023-02-19T01:37:36.232Z,97890.31
2023-02-19T01:40:39.036Z,97887.06
2023-02-19T01:44:01.190Z,97891.19
2023-02-19T01:47:04.052Z,97882.75
2023-02-19T01:50:07.294Z,97889.59
2023-02-19T01:53:11.954Z,97888.31
2023-02-19T01:56:15.683Z,97893.44
2023-02-19T01:59:20.195Z,97890.81
2023-02-19T02:02:25.118Z,97894.91
2023-02-19T02:05:55.267Z,97897.38
2023-02-19T02:09:16.318Z,97893.66
2023-02-19T02:12:19.162Z,97909.28
2023-02-19T02:15:25.825Z,97899.72
2023-02-19T02:18:32.697Z,97906.25
2023-02-19T02:21:49.047Z,97903.72
2023-02-19T02:25:13.023Z,97912.69
2023-02-19T02:28:23.784Z,97912.06
2023-02-19T02:31:31.445Z,97910.16
2023-02-19T02:34:38.022Z,97917.44
2023-02-19T02:37:43.728Z,97920.47
2023-02-19T02:40:47.281Z,97923.69
2023-02-19T02:43:50.114Z,97927.78
2023-02-19T02:46:54.344Z,97923.47
2023-02-19T02:50:06.178Z,97931.47
2023-02-19T02:53:28.076Z,97940.22
2023-02-19T02:56:31.803Z,97946.94
2023-02-19T02:59:37.231Z,97949.88
2023-02-19T03:02:42.022Z,97954.97
2023-02-19T03:05:54.078Z,97953.94
2023-02-19T03:09:00.136Z,97957.81
2023-02-19T03:12:22.016Z,97953.44
2023-02-19T03:15:48.729Z,97965.84
2023-02-19T03:19:12.536Z,97959.38
2023-02-19T03:22:17.733Z,97963.81
2023-02-19T03:25:40.129Z,97974.06
2023-02-19T03:29:01.525Z,97976.81
2023-02-19T03:32:06.877Z,97972.69
2023-02-19T03:35:13.044Z,97966.09
2023-02-19T03:38:18.949Z,97971.97
2023-02-19T03:41:25.229Z,97966.97
2023-02-19T03:44:34.544Z,97978.47
2023-02-19T03:47:41.188Z,97976.72
2023-02-19T03:50:47.152Z,97985.75
2023-02-19T03:53:53.512Z,97987.97
2023-02-19T03:57:00.984Z,97998.53
2023-02-19T04:00:06.761Z,97997.72
2023-02-19T04:03:13.121Z,97992.47
2023-02-19T04:06:20.921Z,97999.38
2023-02-19T04:09:25.094Z,98001.13
2023-02-19T04:12:28.439Z,97998.34
2023-02-19T04:15:33.180Z,97982.72
2023-02-19T04:18:38.896Z,97989.06
2023-02-19T04:21:43.359Z,97996.75
2023-02-19T04:24:49.042Z,97997.84
2023-02-19T04:27:51.862Z,97996.66
2023-02-19T04:30:54.768Z,97987.69
2023-02-19T04:33:57.601Z,97993.22
2023-02-19T04:37:01.768Z,98005.63
2023-02-19T04:40:04.784Z,98008.97
2023-02-19T04:43:07.599Z,98003.25
2023-02-19T04:46:10.409Z,98005.72
2023-02-19T04:49:13.304Z,98000.38
2023-02-19T04:52:17.565Z,98004.69
2023-02-19T04:55:20.374Z,98004.19
2023-02-19T04:58:23.197Z,98013.63
2023-02-19T05:01:26.113Z,98009.31
2023-02-19T05:04:29.041Z,98014.94
2023-02-19T05:07:33.347Z,98013.63
2023-02-19T05:10:36.175Z,98018.22
2023-02-19T05:13:39.455Z,98022.75
2023-02-19T05:16:42.230Z,98022.13
2023-02-19T05:19:45.033Z,98027.91
2023-02-19T05:22:49.196Z,98032.81
2023-02-19T05:25:52.081Z,98032.41
2023-02-19T05:28:54.995Z,98025.69
2023-02-19T05:31:57.861Z,98023.66
2023-02-19T05:35:00.715Z,98028.56
2023-02-19T05:38:05.961Z,98032.31
2023-02-19T05:41:09.910Z,98036.44
2023-02-19T05:44:12.862Z,98038.91
2023-02-19T05:47:15.657Z,98033.66
2023-02-19T05:50:18.616Z,98046.38
2023-02-19T05:53:22.801Z,98041.84
2023-02-19T05:56:28.693Z,98039.25
2023-02-19T05:59:31.741Z,98042.75
2023-02-19T06:02:34.516Z,98037.59
2023-02-19T06:05:38.513Z,98037.16
2023-02-19T06:08:42.926Z,98041.84
2023-02-19T06:11:45.928Z,98035.44
2023-02-19T06:14:49.062Z,98044.47
2023-02-19T06:17:51.917Z,98043.16
2023-02-19T06:20:54.678Z,98033.91
2023-02-19T06:23:58.890Z,98041.09
2023-02-19T06:27:01.713Z,98047.38
2023-02-19T06:30:04.826Z,98044.69
2023-02-19T06:33:07.711Z,98046.91
2023-02-19T06:36:12.447Z,98033.25
2023-02-19T06:39:16.716Z,98043.50
2023-02-19T06:42:19.534Z,98043.50
2023-02-19T06:45:22.323Z,98046.50
2023-02-19T06:48:25.146Z,98044.22
2023-02-19T06:51:29.752Z,98052.44
2023-02-19T06:54:34.542Z,98057.31
2023-02-19T06:57:37.346Z,98055.09
2023-02-19T07:00:40.171Z,98066.31
2023-02-19T07:03:43.193Z,98072.41
2023-02-19T07:06:46.024Z,98058.69
2023-02-19T07:09:50.298Z,98062.94
2023-02-19T07:12:53.114Z,98065.69
2023-02-19T07:15:59.792Z,98066.97
2023-02-19T07:19:02.947Z,98068.09
2023-02-19T07:22:05.831Z,98068.81
2023-02-19T07:25:10.162Z,98064.69
2023-02-19T07:28:12.984Z,98067.44
2023-02-19T07:31:16.647Z,98072.31
2023-02-19T07:34:19.505Z,98071.03
2023-02-19T07:37:22.362Z,98077.00
2023-02-19T07:40:26.585Z,98071.59
2023-02-19T07:43:30.535Z,98077.94
2023-02-19T07:46:33.372Z,98082.25
2023-02-19T07:49:36.228Z,98085.13
2023-02-19T07:56:02.726Z,98087.69
2023-02-19T07:59:05.546Z,98086.03
2023-02-19T08:02:29.995Z,98085.03
2023-02-19T08:05:34.898Z,98087.06
2023-02-19T08:08:38.036Z,98084.72
2023-02-19T08:11:59.750Z,98087.41
2023-02-19T08:15:02.621Z,98094.59
2023-02-19T08:18:05.404Z,98106.91
2023-02-19T08:21:08.351Z,98099.09
2023-02-19T08:24:11.402Z,98098.81
2023-02-19T08:27:18.646Z,98096.63
2023-02-19T08:30:21.504Z,98099.81
2023-02-19T08:33:24.350Z,98091.47
2023-02-19T08:36:27.503Z,98106.81
2023-02-19T08:39:30.341Z,98098.63
2023-02-19T08:42:34.481Z,98096.31
2023-02-19T08:45:38.435Z,98101.47
2023-02-19T08:48:41.740Z,98109.66
2023-02-19T08:51:44.549Z,98106.16
2023-02-19T08:54:47.313Z,98102.69
2023-02-19T08:57:51.622Z,98116.66
2023-02-19T09:00:54.695Z,98113.53
2023-02-19T09:03:57.591Z,98111.41
2023-02-19T09:07:00.465Z,98105.81
2023-02-19T09:10:03.363Z,98112.53
2023-02-19T09:13:07.595Z,98105.06
2023-02-19T09:16:10.623Z,98100.94
2023-02-19T09:19:13.429Z,98112.84
2023-02-19T09:22:16.223Z,98106.00
2023-02-19T09:25:19.093Z,98111.59
2023-02-19T09:28:29.404Z,98112.88
2023-02-19T09:31:35.227Z,98112.53
2023-02-19T09:34:39.070Z,98102.91
2023-02-19T09:37:41.924Z,98102.16
2023-02-19T09:40:44.855Z,98102.25
2023-02-19T09:43:49.160Z,98109.69
2023-02-19T09:46:53.074Z,98108.47
2023-02-19T09:49:57.113Z,98110.13
2023-02-19T09:53:01.680Z,98098.38
2023-02-19T09:56:05.873Z,98106.00
2023-02-19T09:59:17.533Z,98112.31
2023-02-19T10:02:22.208Z,98104.03
2023-02-19T10:05:26.292Z,98109.66
2023-02-19T10:08:32.800Z,98115.88
2023-02-19T10:11:35.736Z,98112.59
2023-02-19T10:14:41.469Z,98108.13
2023-02-19T10:17:44.336Z,98107.66
2023-02-19T10:20:48.340Z,98108.13
2023-02-19T10:23:52.646Z,98113.09
2023-02-19T10:26:55.725Z,98111.94
2023-02-19T10:30:01.349Z,98113.72
2023-02-19T10:33:09.602Z,98107.63
2023-02-19T10:36:21.957Z,98114.84
2023-02-19T10:39:33.489Z,98119.75
2023-02-19T10:42:36.264Z,98114.00
2023-02-19T10:45:42.233Z,98119.16
2023-02-19T10:48:48.171Z,98123.06
2023-02-19T10:51:51.161Z,98123.06
2023-02-19T10:54:55.953Z,98125.78
2023-02-19T10:57:59.186Z,98117.13
2023-02-19T11:01:13.884Z,98116.47
2023-02-19T11:04:17.605Z,98116.53
2023-02-19T11:07:20.659Z,98113.63
2023-02-19T11:10:27.441Z,98106.19
2023-02-19T11:13:33.005Z,98100.06
2023-02-19T11:16:41.336Z,98099.63
2023-02-19T11:19:45.026Z,98110.81
2023-02-19T11:22:49.311Z,98113.03
2023-02-19T11:25:54.082Z,98108.31
2023-02-19T11:28:58.005Z,98110.16
2023-02-19T11:32:17.852Z,98099.38
2023-02-19T11:35:23.174Z,98111.03
2023-02-19T11:38:26.020Z,98105.06
2023-02-19T11:41:40.180Z,98113.28
2023-02-19T11:44:49.494Z,98121.84
2023-02-19T11:48:11.419Z,98117.13
2023-02-19T11:51:23.493Z,98120.59
2023-02-19T11:54:32.677Z,98112.72
2023-02-19T11:57:39.463Z,98123.63
2023-02-19T12:00:47.230Z,98134.69
2023-02-19T12:04:23.164Z,98132.38
2023-02-19T12:07:35.930Z,98135.56
2023-02-19T12:10:45.821Z,98152.31
2023-02-19T12:13:57.393Z,98148.81
2023-02-19T12:17:04.133Z,98148.00
2023-02-19T12:20:14.232Z,98147.81
2023-02-19T12:23:34.898Z,98149.84
2023-02-19T12:26:41.197Z,98150.84
2023-02-19T12:30:01.904Z,98156.03
2023-02-19T12:33:13.221Z,98147.72
2023-02-19T12:36:23.649Z,98141.91
2023-02-19T12:39:31.641Z,98157.78
2023-02-19T12:42:41.361Z,98163.94
2023-02-19T12:45:46.933Z,98148.75
2023-02-19T12:48:53.962Z,98154.09
2023-02-19T12:51:59.869Z,98146.88
2023-02-19T12:55:06.995Z,98137.31
2023-02-19T12:58:12.836Z,98125.88
2023-02-19T13:01:17.386Z,98128.84
2023-02-19T13:04:25.328Z,98134.09
2023-02-19T13:07:32.786Z,98132.53
2023-02-19T13:10:39.376Z,98143.66
2023-02-19T13:13:43.875Z,98147.53
2023-02-19T13:16:49.728Z,98144.94
2023-02-19T13:19:54.366Z,98153.28
2023-02-19T13:23:20.898Z,98152.41
2023-02-19T13:26:43.022Z,98149.84
2023-02-19T13:29:54.486Z,98146.25
2023-02-19T13:33:03.615Z,98148.56
2023-02-19T13:36:14.270Z,98145.88
2023-02-19T13:39:20.779Z,98137.47
2023-02-19T13:42:26.430Z,98152.97
2023-02-19T13:45:32.841Z,98141.16
2023-02-19T13:48:36.509Z,98149.91
2023-02-19T13:51:40.589Z,98153.22
2023-02-19T13:54:44.914Z,98150.72
2023-02-19T13:57:47.819Z,98165.28
2023-02-19T14:00:51.313Z,98160.00
2023-02-19T14:03:55.038Z,98170.69
2023-02-19T14:07:16.543Z,98167.66
2023-02-19T14:10:37.981Z,98163.22
2023-02-19T14:13:59.306Z,98161.56
2023-02-19T14:17:05.673Z,98158.91
2023-02-19T14:20:23.297Z,98166.34
2023-02-19T14:23:26.245Z,98166.16
2023-02-19T14:26:31.561Z,98158.78
2023-02-19T14:29:35.734Z,98159.22
2023-02-19T14:32:40.609Z,98165.84
2023-02-19T14:35:45.392Z,98167.97
2023-02-19T14:38:53.187Z,98159.94
2023-02-19T14:41:58.367Z,98152.75
2023-02-19T14:45:03.991Z,98151.34
2023-02-19T14:48:07.284Z,98149.38
2023-02-19T14:51:13.772Z,98142.28
2023-02-19T14:54:18.709Z,98142.78
2023-02-19T14:57:24.515Z,98139.50
2023-02-19T15:00:29.959Z,98140.25
2023-02-19T15:03:34.173Z,98132.59
2023-02-19T15:06:37.120Z,98144.72
2023-02-19T15:09:42.291Z,98137.50
2023-02-19T15:12:47.193Z,98139.16
2023-02-19T15:15:52.079Z,98137.06
2023-02-19T15:18:56.464Z,98140.75
2023-02-19T15:21:59.461Z,98153.34
2023-02-19T15:25:02.981Z,98144.63
2023-02-19T15:28:29.885Z,98152.06
2023-02-19T15:31:34.089Z,98151.72
2023-02-19T15:34:36.980Z,98148.78
2023-02-19T15:37:39.775Z,98159.47
2023-02-19T15:40:45.161Z,98169.94
2023-02-19T15:43:51.321Z,98159.34
2023-02-19T15:46:56.690Z,98171.94
2023-02-19T15:50:01.235Z,98168.66
2023-02-19T15:53:07.157Z,98168.66
2023-02-19T15:56:13.164Z,98166.88
2023-02-19T15:59:21.170Z,98170.28
2023-02-19T16:02:27.623Z,98167.25
2023-02-19T16:05:30.800Z,98166.22
2023-02-19T16:08:34.420Z,98171.31
2023-02-19T16:11:38.541Z,98171.31
2023-02-19T16:14:41.367Z,98174.63
2023-02-19T16:17:46.223Z,98172.72
2023-02-19T16:20:49.213Z,98174.81
2023-02-19T16:23:54.914Z,98169.41
2023-02-19T16:26:58.251Z,98164.63
2023-02-19T16:30:04.842Z,98171.66
2023-02-19T16:33:33.045Z,98170.78
2023-02-19T16:36:37.006Z,98163.16
2023-02-19T16:39:39.811Z,98165.84
2023-02-19T16:43:15.698Z,98162.13
2023-02-19T16:46:18.513Z,98167.06
2023-02-19T16:49:23.809Z,98162.34
2023-02-19T16:52:26.590Z,98162.59
2023-02-19T16:55:29.964Z,98156.28
2023-02-19T16:58:32.782Z,98169.13
2023-02-19T17:01:35.779Z,98156.44
2023-02-19T17:04:39.972Z,98150.28
2023-02-19T17:07:42.783Z,98153.03
2023-02-19T17:10:45.583Z,98156.44
2023-02-19T17:13:48.446Z,98154.78
2023-02-19T17:16:51.255Z,98159.53
2023-02-19T17:19:56.128Z,98161.19
2023-02-19T17:22:59.109Z,98162.41
2023-02-19T17:26:02.029Z,98160.75
2023-02-19T17:29:06.158Z,98163.16
2023-02-19T17:32:09.085Z,98160.69
2023-02-19T17:35:14.119Z,98153.44
2023-02-19T17:38:17.005Z,98154.19
2023-02-19T17:41:19.832Z,98149.50
2023-02-19T17:44:22.697Z,98147.84
2023-02-19T17:47:25.564Z,98149.50
2023-02-19T17:50:30.896Z,98145.72
2023-02-19T17:53:33.680Z,98142.22
2023-02-19T17:56:36.774Z,98151.47
2023-02-19T17:59:39.605Z,98152.50
2023-02-19T18:02:42.517Z,98147.69
2023-02-19T18:05:46.768Z,98152.84
2023-02-19T18:08:50.494Z,98151.78
2023-02-19T18:11:53.321Z,98154.47
2023-02-19T18:14:57.307Z,98158.47
2023-02-19T18:18:00.090Z,98157.28
2023-02-19T18:21:04.311Z,98154.78
2023-02-19T18:24:07.586Z,98155.88
2023-02-19T18:27:10.418Z,98147.75
2023-02-19T18:30:15.643Z,98143.06
2023-02-19T18:33:18.745Z,98139.59
2023-02-19T18:36:22.926Z,98140.44
2023-02-19T18:39:25.778Z,98145.19
2023-02-19T18:42:29.217Z,98148.41
2023-02-19T18:45:35.328Z,98146.09
2023-02-19T18:48:38.119Z,98147.13
2023-02-19T18:51:43.484Z,98146.75
2023-02-19T18:54:46.242Z,98133.53
2023-02-19T18:57:49.167Z,98146.09
2023-02-19T19:00:52.100Z,98140.59
2023-02-19T19:03:54.928Z,98135.25
2023-02-19T19:06:59.196Z,98132.41
2023-02-19T19:10:02.037Z,98135.44
2023-02-19T19:13:04.925Z,98135.50
2023-02-19T19:16:07.918Z,98136.94
2023-02-19T19:19:12.181Z,98138.94
2023-02-19T19:22:16.746Z,98138.06
2023-02-19T19:25:19.855Z,98135.16
2023-02-19T19:28:22.729Z,98146.22
2023-02-19T19:31:25.964Z,98149.09
2023-02-19T19:34:28.807Z,98145.34
2023-02-19T19:37:33.000Z,98145.47
2023-02-19T19:40:35.815Z,98148.66
2023-02-19T19:43:38.652Z,98132.34
2023-02-19T19:46:45.775Z,98132.69
2023-02-19T19:49:51.678Z,98135.09
2023-02-19T19:52:55.955Z,98141.25
2023-02-19T19:55:58.861Z,98134.47
2023-02-19T19:59:01.679Z,98138.78
2023-02-19T20:02:04.470Z,98139.81
2023-02-19T20:05:08.028Z,98130.31
2023-02-19T20:08:12.231Z,98144.72
2023-02-19T20:11:15.069Z,98145.06
2023-02-19T20:14:18.417Z,98145.47
2023-02-19T20:17:21.618Z,98142.72
2023-02-19T20:20:24.564Z,98136.91
2023-02-19T20:23:28.840Z,98138.19
2023-02-19T20:26:32.037Z,98130.81
2023-02-19T20:29:35.469Z,98124.22
2023-02-19T20:32:38.279Z,98131.03
2023-02-19T20:35:41.135Z,98130.22
2023-02-19T20:38:45.335Z,98135.50
2023-02-19T20:41:48.485Z,98130.78
2023-02-19T20:44:51.377Z,98133.00
2023-02-19T20:47:54.259Z,98137.19
2023-02-19T20:50:59.622Z,98136.56
2023-02-19T20:54:03.880Z,98139.91
2023-02-19T20:57:07.077Z,98133.94
2023-02-19T21:00:11.274Z,98140.81
2023-02-19T21:03:14.129Z,98136.88
2023-02-19T21:06:17.006Z,98136.47
2023-02-19T21:09:21.604Z,98137.94
2023-02-19T21:12:24.437Z,98132.97
2023-02-19T21:15:27.317Z,98130.63
2023-02-19T21:18:30.097Z,98139.41
2023-02-19T21:21:34.522Z,98134.63
2023-02-19T21:24:38.657Z,98127.22
2023-02-19T21:27:42.055Z,98124.19
2023-02-19T21:30:44.963Z,98130.56
2023-02-19T21:33:47.882Z,98133.41
2023-02-19T21:36:52.834Z,98133.84
2023-02-19T21:39:58.781Z,98146.41
2023-02-19T21:43:01.904Z,98143.09
2023-02-19T21:46:04.822Z,98152.03
2023-02-19T21:49:08.043Z,98153.22
2023-02-19T21:52:13.989Z,98152.19
2023-02-19T21:55:18.177Z,98139.84
2023-02-19T21:58:20.960Z,98139.06
2023-02-19T22:01:26.386Z,98153.94
2023-02-19T22:04:29.199Z,98164.44
2023-02-19T22:07:32.256Z,98161.69
2023-02-19T22:10:36.433Z,98160.09
2023-02-19T22:13:39.801Z,98169.53
2023-02-19T22:16:42.693Z,98167.25
2023-02-19T22:19:45.613Z,98162.13
2023-02-19T22:22:48.699Z,98159.22
2023-02-19T22:25:52.845Z,98165.81
2023-02-19T22:28:55.890Z,98159.66
2023-02-19T22:31:58.792Z,98164.19
2023-02-19T22:35:01.684Z,98167.88
2023-02-19T22:38:04.497Z,98163.59
2023-02-19T22:41:08.719Z,98155.94
2023-02-19T22:44:12.003Z,98161.28
2023-02-19T22:47:14.915Z,98160.97
2023-02-19T22:50:19.565Z,98161.75
2023-02-19T22:53:22.398Z,98156.19
2023-02-19T22:56:27.780Z,98162.19
2023-02-19T22:59:30.718Z,98163.84
2023-02-19T23:02:33.561Z,98163.72
2023-02-19T23:05:36.415Z,98163.88
2023-02-19T23:08:39.196Z,98166.75
2023-02-19T23:11:43.516Z,98167.22
2023-02-19T23:14:47.504Z,98166.34
2023-02-19T23:17:50.353Z,98152.31
2023-02-19T23:20:53.217Z,98156.06
2023-02-19T23:23:56.435Z,98152.19
2023-02-19T23:27:00.798Z,98157.03
2023-02-19T23:30:03.653Z,98162.63
2023-02-19T23:33:06.522Z,98154.34
2023-02-19T23:36:10.339Z,98156.19
2023-02-19T23:39:14.004Z,98161.56
2023-02-19T23:42:18.469Z,98160.09
2023-02-19T23:45:21.396Z,98159.84
2023-02-19T23:48:24.238Z,98161.75
2023-02-19T23:51:27.127Z,98161.75
2023-02-19T23:54:29.893Z,98156.41
2023-02-19T23:57:37.077Z,98157.66
